Terminal Aerodrome Forecast
Issued by NWS

Home | Current Version | Previous Version | Text Only | Print | Product List | Glossary On
Versions: 1 2 3 4 5 6 7 8 9 10 11 12 13 14 15 16 17 18 19 20 21
000
FTUS43 KDLH 251722
TAFHYR
TAF
KHYR 251722Z 2518/2618 34007KT P6SM OVC016
     FM252100 33006KT P6SM SCT025
     FM260100 36002KT P6SM SKC
     FM261000 00000KT 4SM BR FEW001
     FM261300 04004KT P6SM SKC=

USA.gov is the U.S. government's official web portal to all federal, state and local government web resources and services.